sensor_id;sensor_type;location;lat;lon;timestamp;P1;durP1;ratioP1;P2;durP2;ratioP2
48629;SDS011;34426;52.180;4.462;2023-04-08T00:00:56;48.88;;;29.92;;
48629;SDS011;34426;52.180;4.462;2023-04-08T00:03:23;42.25;;;29.13;;
48629;SDS011;34426;52.180;4.462;2023-04-08T00:05:51;49.95;;;32.47;;
48629;SDS011;34426;52.180;4.462;2023-04-08T00:08:18;51.13;;;32.22;;
48629;SDS011;34426;52.180;4.462;2023-04-08T00:10:45;49.95;;;32.63;;
48629;SDS011;34426;52.180;4.462;2023-04-08T00:13:14;50.97;;;33.78;;
48629;SDS011;34426;52.180;4.462;2023-04-08T00:15:42;56.75;;;32.90;;
48629;SDS011;34426;52.180;4.462;2023-04-08T00:18:10;54.70;;;33.60;;
48629;SDS011;34426;52.180;4.462;2023-04-08T00:20:38;58.47;;;34.10;;
48629;SDS011;34426;52.180;4.462;2023-04-08T00:23:06;57.72;;;35.65;;
48629;SDS011;34426;52.180;4.462;2023-04-08T00:25:33;53.53;;;34.38;;
48629;SDS011;34426;52.180;4.462;2023-04-08T00:28:01;62.00;;;36.92;;
48629;SDS011;34426;52.180;4.462;2023-04-08T00:30:30;60.00;;;36.00;;
48629;SDS011;34426;52.180;4.462;2023-04-08T00:32:58;64.20;;;38.70;;
48629;SDS011;34426;52.180;4.462;2023-04-08T00:35:25;63.53;;;38.80;;
48629;SDS011;34426;52.180;4.462;2023-04-08T00:37:53;59.22;;;37.83;;
48629;SDS011;34426;52.180;4.462;2023-04-08T00:40:21;55.38;;;37.03;;
48629;SDS011;34426;52.180;4.462;2023-04-08T00:42:49;64.43;;;38.25;;
48629;SDS011;34426;52.180;4.462;2023-04-08T00:45:16;58.85;;;37.25;;
48629;SDS011;34426;52.180;4.462;2023-04-08T00:47:46;59.38;;;36.90;;
48629;SDS011;34426;52.180;4.462;2023-04-08T00:50:13;63.30;;;36.40;;
48629;SDS011;34426;52.180;4.462;2023-04-08T00:52:41;67.47;;;37.70;;
48629;SDS011;34426;52.180;4.462;2023-04-08T00:55:09;61.63;;;36.70;;
48629;SDS011;34426;52.180;4.462;2023-04-08T00:57:36;57.95;;;36.92;;
48629;SDS011;34426;52.180;4.462;2023-04-08T01:00:04;62.63;;;37.00;;
48629;SDS011;34426;52.180;4.462;2023-04-08T01:02:35;57.97;;;35.08;;
48629;SDS011;34426;52.180;4.462;2023-04-08T01:05:11;58.03;;;35.63;;
48629;SDS011;34426;52.180;4.462;2023-04-08T01:07:43;58.00;;;34.85;;
48629;SDS011;34426;52.180;4.462;2023-04-08T01:10:14;61.80;;;36.00;;
48629;SDS011;34426;52.180;4.462;2023-04-08T01:12:48;59.95;;;36.08;;
48629;SDS011;34426;52.180;4.462;2023-04-08T01:15:19;54.85;;;35.20;;
48629;SDS011;34426;52.180;4.462;2023-04-08T01:17:49;60.40;;;36.13;;
48629;SDS011;34426;52.180;4.462;2023-04-08T01:20:21;56.72;;;34.72;;
48629;SDS011;34426;52.180;4.462;2023-04-08T01:22:53;62.97;;;35.80;;
48629;SDS011;34426;52.180;4.462;2023-04-08T01:25:31;64.90;;;35.22;;
48629;SDS011;34426;52.180;4.462;2023-04-08T01:28:03;61.38;;;36.65;;
48629;SDS011;34426;52.180;4.462;2023-04-08T01:30:32;59.88;;;34.78;;
48629;SDS011;34426;52.180;4.462;2023-04-08T01:33:01;58.92;;;35.83;;
48629;SDS011;34426;52.180;4.462;2023-04-08T01:35:29;58.00;;;34.97;;
48629;SDS011;34426;52.180;4.462;2023-04-08T01:37:58;60.03;;;35.65;;
48629;SDS011;34426;52.180;4.462;2023-04-08T01:40:28;58.83;;;34.28;;
48629;SDS011;34426;52.180;4.462;2023-04-08T01:42:57;55.85;;;33.65;;
48629;SDS011;34426;52.180;4.462;2023-04-08T01:45:28;58.38;;;34.17;;
48629;SDS011;34426;52.180;4.462;2023-04-08T01:47:56;59.92;;;35.78;;
48629;SDS011;34426;52.180;4.462;2023-04-08T01:50:25;60.42;;;36.03;;
48629;SDS011;34426;52.180;4.462;2023-04-08T01:52:54;61.53;;;36.20;;
48629;SDS011;34426;52.180;4.462;2023-04-08T01:55:24;59.08;;;34.97;;
48629;SDS011;34426;52.180;4.462;2023-04-08T01:57:52;53.25;;;33.95;;
48629;SDS011;34426;52.180;4.462;2023-04-08T02:00:23;58.22;;;34.65;;
48629;SDS011;34426;52.180;4.462;2023-04-08T02:02:54;61.90;;;34.85;;
48629;SDS011;34426;52.180;4.462;2023-04-08T02:05:22;63.40;;;35.92;;
48629;SDS011;34426;52.180;4.462;2023-04-08T02:07:49;57.75;;;34.63;;
48629;SDS011;34426;52.180;4.462;2023-04-08T02:10:17;58.00;;;35.30;;
48629;SDS011;34426;52.180;4.462;2023-04-08T02:12:44;62.60;;;34.72;;
48629;SDS011;34426;52.180;4.462;2023-04-08T02:15:12;58.70;;;34.75;;
48629;SDS011;34426;52.180;4.462;2023-04-08T02:17:44;56.95;;;34.75;;
48629;SDS011;34426;52.180;4.462;2023-04-08T02:20:15;62.03;;;35.88;;
48629;SDS011;34426;52.180;4.462;2023-04-08T02:22:47;62.88;;;35.35;;
48629;SDS011;34426;52.180;4.462;2023-04-08T02:25:22;58.92;;;35.53;;
48629;SDS011;34426;52.180;4.462;2023-04-08T02:27:51;61.25;;;37.03;;
48629;SDS011;34426;52.180;4.462;2023-04-08T02:30:19;61.47;;;35.08;;
48629;SDS011;34426;52.180;4.462;2023-04-08T02:32:51;61.53;;;35.05;;
48629;SDS011;34426;52.180;4.462;2023-04-08T02:35:21;67.40;;;38.30;;
48629;SDS011;34426;52.180;4.462;2023-04-08T02:37:50;64.55;;;36.72;;
48629;SDS011;34426;52.180;4.462;2023-04-08T02:40:24;63.72;;;36.78;;
48629;SDS011;34426;52.180;4.462;2023-04-08T02:42:53;64.78;;;36.45;;
48629;SDS011;34426;52.180;4.462;2023-04-08T02:45:21;63.47;;;36.03;;
48629;SDS011;34426;52.180;4.462;2023-04-08T02:47:54;62.35;;;37.17;;
48629;SDS011;34426;52.180;4.462;2023-04-08T02:50:21;64.85;;;37.38;;
48629;SDS011;34426;52.180;4.462;2023-04-08T02:52:49;61.22;;;37.03;;
48629;SDS011;34426;52.180;4.462;2023-04-08T02:55:17;64.28;;;37.42;;
48629;SDS011;34426;52.180;4.462;2023-04-08T02:57:45;63.42;;;37.47;;
48629;SDS011;34426;52.180;4.462;2023-04-08T03:00:13;69.63;;;38.50;;
48629;SDS011;34426;52.180;4.462;2023-04-08T03:02:41;70.10;;;38.15;;
48629;SDS011;34426;52.180;4.462;2023-04-08T03:05:11;66.90;;;37.95;;
48629;SDS011;34426;52.180;4.462;2023-04-08T03:07:38;57.60;;;35.38;;
48629;SDS011;34426;52.180;4.462;2023-04-08T03:10:06;62.58;;;35.38;;
48629;SDS011;34426;52.180;4.462;2023-04-08T03:12:34;65.15;;;35.88;;
48629;SDS011;34426;52.180;4.462;2023-04-08T03:15:01;60.42;;;35.45;;
48629;SDS011;34426;52.180;4.462;2023-04-08T03:17:29;66.00;;;37.55;;
48629;SDS011;34426;52.180;4.462;2023-04-08T03:19:56;58.20;;;35.13;;
48629;SDS011;34426;52.180;4.462;2023-04-08T03:22:26;59.80;;;34.20;;
48629;SDS011;34426;52.180;4.462;2023-04-08T03:24:56;55.88;;;34.80;;
48629;SDS011;34426;52.180;4.462;2023-04-08T03:27:24;62.63;;;34.97;;
48629;SDS011;34426;52.180;4.462;2023-04-08T03:29:51;58.70;;;34.78;;
48629;SDS011;34426;52.180;4.462;2023-04-08T03:32:19;62.42;;;36.92;;
48629;SDS011;34426;52.180;4.462;2023-04-08T03:34:46;63.88;;;36.60;;
48629;SDS011;34426;52.180;4.462;2023-04-08T03:37:13;61.80;;;35.17;;
48629;SDS011;34426;52.180;4.462;2023-04-08T03:39:43;66.30;;;36.05;;
48629;SDS011;34426;52.180;4.462;2023-04-08T03:42:10;63.38;;;35.63;;
48629;SDS011;34426;52.180;4.462;2023-04-08T03:44:37;57.60;;;34.70;;
48629;SDS011;34426;52.180;4.462;2023-04-08T03:47:04;58.25;;;34.05;;
48629;SDS011;34426;52.180;4.462;2023-04-08T03:49:32;61.15;;;34.35;;
48629;SDS011;34426;52.180;4.462;2023-04-08T03:51:59;65.53;;;34.83;;
48629;SDS011;34426;52.180;4.462;2023-04-08T03:54:26;52.78;;;32.97;;
48629;SDS011;34426;52.180;4.462;2023-04-08T03:56:56;57.22;;;31.80;;
48629;SDS011;34426;52.180;4.462;2023-04-08T03:59:23;55.90;;;33.05;;
48629;SDS011;34426;52.180;4.462;2023-04-08T04:01:50;60.03;;;33.03;;
48629;SDS011;34426;52.180;4.462;2023-04-08T04:04:18;58.25;;;33.58;;
48629;SDS011;34426;52.180;4.462;2023-04-08T04:06:45;64.05;;;36.60;;
48629;SDS011;34426;52.180;4.462;2023-04-08T04:09:13;55.28;;;34.38;;
48629;SDS011;34426;52.180;4.462;2023-04-08T04:11:40;58.40;;;35.20;;
48629;SDS011;34426;52.180;4.462;2023-04-08T04:14:09;60.70;;;34.92;;
48629;SDS011;34426;52.180;4.462;2023-04-08T04:16:37;58.75;;;34.88;;
48629;SDS011;34426;52.180;4.462;2023-04-08T04:19:04;58.90;;;35.10;;
48629;SDS011;34426;52.180;4.462;2023-04-08T04:21:32;57.20;;;33.72;;
48629;SDS011;34426;52.180;4.462;2023-04-08T04:23:59;64.30;;;35.08;;
48629;SDS011;34426;52.180;4.462;2023-04-08T04:26:27;59.13;;;34.60;;
48629;SDS011;34426;52.180;4.462;2023-04-08T04:28:54;60.63;;;34.25;;
48629;SDS011;34426;52.180;4.462;2023-04-08T04:31:24;60.08;;;34.78;;
48629;SDS011;34426;52.180;4.462;2023-04-08T04:33:51;55.35;;;32.53;;
48629;SDS011;34426;52.180;4.462;2023-04-08T04:36:19;54.08;;;32.35;;
48629;SDS011;34426;52.180;4.462;2023-04-08T04:38:47;53.05;;;31.35;;
48629;SDS011;34426;52.180;4.462;2023-04-08T04:41:15;56.47;;;33.13;;
48629;SDS011;34426;52.180;4.462;2023-04-08T04:43:43;67.78;;;35.83;;
48629;SDS011;34426;52.180;4.462;2023-04-08T04:46:10;60.95;;;33.70;;
48629;SDS011;34426;52.180;4.462;2023-04-08T04:48:39;70.20;;;34.28;;
48629;SDS011;34426;52.180;4.462;2023-04-08T04:51:07;108.00;;;40.70;;
48629;SDS011;34426;52.180;4.462;2023-04-08T04:53:34;104.30;;;39.08;;
48629;SDS011;34426;52.180;4.462;2023-04-08T04:56:02;201.65;;;39.58;;
48629;SDS011;34426;52.180;4.462;2023-04-08T04:58:30;116.35;;;39.65;;
48629;SDS011;34426;52.180;4.462;2023-04-08T05:00:57;152.38;;;40.70;;
48629;SDS011;34426;52.180;4.462;2023-04-08T05:03:24;105.78;;;39.22;;
48629;SDS011;34426;52.180;4.462;2023-04-08T05:05:53;109.25;;;38.83;;
48629;SDS011;34426;52.180;4.462;2023-04-08T05:08:21;77.65;;;37.63;;
48629;SDS011;34426;52.180;4.462;2023-04-08T05:10:48;73.47;;;38.10;;
48629;SDS011;34426;52.180;4.462;2023-04-08T05:13:16;200.20;;;37.40;;
48629;SDS011;34426;52.180;4.462;2023-04-08T05:15:44;150.20;;;36.20;;
48629;SDS011;34426;52.180;4.462;2023-04-08T05:18:11;102.55;;;37.65;;
48629;SDS011;34426;52.180;4.462;2023-04-08T05:20:39;166.15;;;37.20;;
48629;SDS011;34426;52.180;4.462;2023-04-08T05:23:08;120.80;;;39.20;;
48629;SDS011;34426;52.180;4.462;2023-04-08T05:25:36;86.15;;;40.10;;
48629;SDS011;34426;52.180;4.462;2023-04-08T05:28:03;86.75;;;40.30;;
48629;SDS011;34426;52.180;4.462;2023-04-08T05:30:33;80.78;;;40.15;;
48629;SDS011;34426;52.180;4.462;2023-04-08T05:33:00;71.68;;;38.15;;
48629;SDS011;34426;52.180;4.462;2023-04-08T05:35:28;146.98;;;39.17;;
48629;SDS011;34426;52.180;4.462;2023-04-08T05:37:55;92.72;;;35.92;;
48629;SDS011;34426;52.180;4.462;2023-04-08T05:40:25;148.52;;;35.78;;
48629;SDS011;34426;52.180;4.462;2023-04-08T05:42:52;128.70;;;34.10;;
48629;SDS011;34426;52.180;4.462;2023-04-08T05:45:19;150.00;;;34.92;;
48629;SDS011;34426;52.180;4.462;2023-04-08T05:47:46;67.20;;;34.97;;
48629;SDS011;34426;52.180;4.462;2023-04-08T05:50:14;48.35;;;31.95;;
48629;SDS011;34426;52.180;4.462;2023-04-08T05:52:42;49.58;;;33.40;;
48629;SDS011;34426;52.180;4.462;2023-04-08T05:55:10;47.42;;;32.95;;
48629;SDS011;34426;52.180;4.462;2023-04-08T05:57:42;48.90;;;32.53;;
48629;SDS011;34426;52.180;4.462;2023-04-08T06:00:09;45.63;;;30.27;;
48629;SDS011;34426;52.180;4.462;2023-04-08T06:02:37;76.47;;;28.83;;
48629;SDS011;34426;52.180;4.462;2023-04-08T06:05:04;50.05;;;27.90;;
48629;SDS011;34426;52.180;4.462;2023-04-08T06:07:32;62.67;;;28.73;;
48629;SDS011;34426;52.180;4.462;2023-04-08T06:09:59;82.95;;;27.48;;
48629;SDS011;34426;52.180;4.462;2023-04-08T06:12:27;81.93;;;27.60;;
48629;SDS011;34426;52.180;4.462;2023-04-08T06:14:56;41.88;;;26.77;;
48629;SDS011;34426;52.180;4.462;2023-04-08T06:17:23;85.70;;;28.35;;
48629;SDS011;34426;52.180;4.462;2023-04-08T06:19:53;52.05;;;29.90;;
48629;SDS011;34426;52.180;4.462;2023-04-08T06:22:20;79.43;;;29.85;;
48629;SDS011;34426;52.180;4.462;2023-04-08T06:24:47;49.03;;;28.80;;
48629;SDS011;34426;52.180;4.462;2023-04-08T06:27:14;76.00;;;29.02;;
48629;SDS011;34426;52.180;4.462;2023-04-08T06:29:42;67.97;;;28.08;;
48629;SDS011;34426;52.180;4.462;2023-04-08T06:32:11;51.30;;;28.00;;
48629;SDS011;34426;52.180;4.462;2023-04-08T06:34:38;38.67;;;28.35;;
48629;SDS011;34426;52.180;4.462;2023-04-08T06:37:06;91.07;;;26.42;;
48629;SDS011;34426;52.180;4.462;2023-04-08T06:39:33;103.05;;;27.20;;
48629;SDS011;34426;52.180;4.462;2023-04-08T06:42:00;182.68;;;29.15;;
48629;SDS011;34426;52.180;4.462;2023-04-08T06:44:28;182.52;;;27.40;;
48629;SDS011;34426;52.180;4.462;2023-04-08T06:46:57;262.75;;;30.63;;
48629;SDS011;34426;52.180;4.462;2023-04-08T06:49:27;100.78;;;25.00;;
48629;SDS011;34426;52.180;4.462;2023-04-08T06:51:54;145.88;;;28.27;;
48629;SDS011;34426;52.180;4.462;2023-04-08T06:54:25;151.25;;;27.13;;
48629;SDS011;34426;52.180;4.462;2023-04-08T06:56:52;151.68;;;27.42;;
48629;SDS011;34426;52.180;4.462;2023-04-08T06:59:20;251.68;;;27.88;;
48629;SDS011;34426;52.180;4.462;2023-04-08T07:01:47;277.23;;;25.58;;
48629;SDS011;34426;52.180;4.462;2023-04-08T07:04:15;236.13;;;22.88;;
48629;SDS011;34426;52.180;4.462;2023-04-08T07:06:44;176.48;;;20.73;;
48629;SDS011;34426;52.180;4.462;2023-04-08T07:09:14;100.65;;;18.42;;
48629;SDS011;34426;52.180;4.462;2023-04-08T07:11:42;59.25;;;18.13;;
48629;SDS011;34426;52.180;4.462;2023-04-08T07:14:10;108.15;;;16.85;;
48629;SDS011;34426;52.180;4.462;2023-04-08T07:16:38;52.60;;;17.20;;
48629;SDS011;34426;52.180;4.462;2023-04-08T07:19:05;138.32;;;19.17;;
48629;SDS011;34426;52.180;4.462;2023-04-08T07:21:33;94.22;;;19.58;;
48629;SDS011;34426;52.180;4.462;2023-04-08T07:24:02;71.75;;;19.25;;
48629;SDS011;34426;52.180;4.462;2023-04-08T07:26:30;37.88;;;17.83;;
48629;SDS011;34426;52.180;4.462;2023-04-08T07:28:57;47.72;;;19.52;;
48629;SDS011;34426;52.180;4.462;2023-04-08T07:31:24;25.17;;;19.23;;
48629;SDS011;34426;52.180;4.462;2023-04-08T07:33:52;33.90;;;20.88;;
48629;SDS011;34426;52.180;4.462;2023-04-08T07:36:19;71.53;;;20.27;;
48629;SDS011;34426;52.180;4.462;2023-04-08T07:38:50;41.30;;;19.45;;
48629;SDS011;34426;52.180;4.462;2023-04-08T07:41:19;32.80;;;19.33;;
48629;SDS011;34426;52.180;4.462;2023-04-08T07:43:47;24.67;;;19.73;;
48629;SDS011;34426;52.180;4.462;2023-04-08T07:46:14;24.67;;;22.00;;
48629;SDS011;34426;52.180;4.462;2023-04-08T07:48:41;24.17;;;21.55;;
48629;SDS011;34426;52.180;4.462;2023-04-08T07:51:09;24.98;;;22.38;;
48629;SDS011;34426;52.180;4.462;2023-04-08T07:53:36;33.80;;;21.77;;
48629;SDS011;34426;52.180;4.462;2023-04-08T07:56:10;24.00;;;21.52;;
48629;SDS011;34426;52.180;4.462;2023-04-08T07:58:41;25.88;;;23.23;;
48629;SDS011;34426;52.180;4.462;2023-04-08T08:01:15;27.55;;;22.73;;
48629;SDS011;34426;52.180;4.462;2023-04-08T08:03:44;36.25;;;24.50;;
48629;SDS011;34426;52.180;4.462;2023-04-08T08:06:12;29.95;;;23.92;;
48629;SDS011;34426;52.180;4.462;2023-04-08T08:08:39;29.08;;;23.63;;
48629;SDS011;34426;52.180;4.462;2023-04-08T08:11:07;28.45;;;24.63;;
48629;SDS011;34426;52.180;4.462;2023-04-08T08:13:34;27.90;;;24.15;;
48629;SDS011;34426;52.180;4.462;2023-04-08T08:16:04;26.02;;;23.33;;
48629;SDS011;34426;52.180;4.462;2023-04-08T08:18:34;28.25;;;25.33;;
48629;SDS011;34426;52.180;4.462;2023-04-08T08:21:02;27.95;;;24.15;;
48629;SDS011;34426;52.180;4.462;2023-04-08T08:23:29;27.67;;;24.75;;
48629;SDS011;34426;52.180;4.462;2023-04-08T08:26:00;27.88;;;24.98;;
48629;SDS011;34426;52.180;4.462;2023-04-08T08:28:28;28.23;;;25.33;;
48629;SDS011;34426;52.180;4.462;2023-04-08T08:30:58;27.58;;;24.58;;
48629;SDS011;34426;52.180;4.462;2023-04-08T08:33:28;30.77;;;26.58;;
48629;SDS011;34426;52.180;4.462;2023-04-08T08:35:55;29.73;;;26.40;;
48629;SDS011;34426;52.180;4.462;2023-04-08T08:38:22;28.63;;;25.67;;
48629;SDS011;34426;52.180;4.462;2023-04-08T08:40:53;30.75;;;27.25;;
48629;SDS011;34426;52.180;4.462;2023-04-08T08:43:20;35.03;;;28.88;;
48629;SDS011;34426;52.180;4.462;2023-04-08T08:45:49;30.50;;;26.60;;
48629;SDS011;34426;52.180;4.462;2023-04-08T08:48:16;30.35;;;26.30;;
48629;SDS011;34426;52.180;4.462;2023-04-08T08:50:46;31.40;;;26.58;;
48629;SDS011;34426;52.180;4.462;2023-04-08T08:53:14;30.08;;;26.88;;
48629;SDS011;34426;52.180;4.462;2023-04-08T08:55:41;30.67;;;27.40;;
48629;SDS011;34426;52.180;4.462;2023-04-08T08:58:09;30.75;;;26.33;;
48629;SDS011;34426;52.180;4.462;2023-04-08T09:00:36;30.77;;;27.48;;
48629;SDS011;34426;52.180;4.462;2023-04-08T09:03:13;30.40;;;26.83;;
48629;SDS011;34426;52.180;4.462;2023-04-08T09:05:50;27.83;;;24.83;;
48629;SDS011;34426;52.180;4.462;2023-04-08T09:08:29;31.02;;;27.73;;
48629;SDS011;34426;52.180;4.462;2023-04-08T09:11:09;31.63;;;27.52;;
48629;SDS011;34426;52.180;4.462;2023-04-08T09:13:38;28.73;;;25.63;;
48629;SDS011;34426;52.180;4.462;2023-04-08T09:16:06;29.42;;;26.25;;
48629;SDS011;34426;52.180;4.462;2023-04-08T09:18:35;27.33;;;24.52;;
48629;SDS011;34426;52.180;4.462;2023-04-08T09:21:05;28.13;;;24.90;;
48629;SDS011;34426;52.180;4.462;2023-04-08T09:23:40;33.05;;;26.30;;
48629;SDS011;34426;52.180;4.462;2023-04-08T09:26:08;27.48;;;24.58;;
48629;SDS011;34426;52.180;4.462;2023-04-08T09:28:37;25.33;;;22.55;;
48629;SDS011;34426;52.180;4.462;2023-04-08T09:31:17;26.80;;;22.38;;
48629;SDS011;34426;52.180;4.462;2023-04-08T09:33:46;27.98;;;22.80;;
48629;SDS011;34426;52.180;4.462;2023-04-08T09:36:15;27.20;;;23.20;;
48629;SDS011;34426;52.180;4.462;2023-04-08T09:38:43;26.50;;;23.48;;
48629;SDS011;34426;52.180;4.462;2023-04-08T09:41:11;25.38;;;20.65;;
48629;SDS011;34426;52.180;4.462;2023-04-08T09:43:40;25.20;;;21.23;;
48629;SDS011;34426;52.180;4.462;2023-04-08T09:46:10;24.67;;;22.08;;
48629;SDS011;34426;52.180;4.462;2023-04-08T09:48:38;22.83;;;20.42;;
48629;SDS011;34426;52.180;4.462;2023-04-08T09:51:11;23.00;;;20.08;;
48629;SDS011;34426;52.180;4.462;2023-04-08T09:53:45;25.75;;;20.95;;
48629;SDS011;34426;52.180;4.462;2023-04-08T09:56:14;22.90;;;20.27;;
48629;SDS011;34426;52.180;4.462;2023-04-08T09:58:47;23.38;;;19.95;;
48629;SDS011;34426;52.180;4.462;2023-04-08T10:01:18;24.85;;;20.35;;
48629;SDS011;34426;52.180;4.462;2023-04-08T10:03:53;22.05;;;19.52;;
48629;SDS011;34426;52.180;4.462;2023-04-08T10:06:26;21.35;;;18.70;;
48629;SDS011;34426;52.180;4.462;2023-04-08T10:08:55;21.45;;;19.15;;
48629;SDS011;34426;52.180;4.462;2023-04-08T10:11:26;25.17;;;17.57;;
48629;SDS011;34426;52.180;4.462;2023-04-08T10:13:55;18.63;;;16.17;;
48629;SDS011;34426;52.180;4.462;2023-04-08T10:16:22;26.13;;;17.63;;
48629;SDS011;34426;52.180;4.462;2023-04-08T10:18:51;16.42;;;14.73;;
48629;SDS011;34426;52.180;4.462;2023-04-08T10:21:34;18.33;;;15.57;;
48629;SDS011;34426;52.180;4.462;2023-04-08T10:24:05;18.80;;;14.40;;
48629;SDS011;34426;52.180;4.462;2023-04-08T10:26:34;16.05;;;13.40;;
48629;SDS011;34426;52.180;4.462;2023-04-08T10:32:08;16.75;;;14.40;;
48629;SDS011;34426;52.180;4.462;2023-04-08T10:34:53;15.80;;;13.10;;
48629;SDS011;34426;52.180;4.462;2023-04-08T10:37:23;18.85;;;13.18;;
48629;SDS011;34426;52.180;4.462;2023-04-08T10:39:54;23.10;;;13.75;;
48629;SDS011;34426;52.180;4.462;2023-04-08T10:42:26;16.35;;;13.43;;
48629;SDS011;34426;52.180;4.462;2023-04-08T10:44:59;15.93;;;12.55;;
48629;SDS011;34426;52.180;4.462;2023-04-08T10:47:27;20.58;;;14.07;;
48629;SDS011;34426;52.180;4.462;2023-04-08T10:49:54;18.33;;;13.15;;
48629;SDS011;34426;52.180;4.462;2023-04-08T10:52:24;16.42;;;12.80;;
48629;SDS011;34426;52.180;4.462;2023-04-08T10:54:51;13.48;;;11.93;;
48629;SDS011;34426;52.180;4.462;2023-04-08T10:57:22;14.98;;;11.60;;
48629;SDS011;34426;52.180;4.462;2023-04-08T10:59:50;20.25;;;12.38;;
48629;SDS011;34426;52.180;4.462;2023-04-08T11:02:21;14.73;;;11.48;;
48629;SDS011;34426;52.180;4.462;2023-04-08T11:04:57;15.25;;;10.93;;
48629;SDS011;34426;52.180;4.462;2023-04-08T11:07:26;14.07;;;10.50;;
48629;SDS011;34426;52.180;4.462;2023-04-08T11:09:54;13.82;;;11.55;;
48629;SDS011;34426;52.180;4.462;2023-04-08T11:12:21;19.70;;;11.77;;
48629;SDS011;34426;52.180;4.462;2023-04-08T11:14:50;15.35;;;11.20;;
48629;SDS011;34426;52.180;4.462;2023-04-08T11:17:18;14.52;;;10.32;;
48629;SDS011;34426;52.180;4.462;2023-04-08T11:19:46;20.48;;;10.65;;
48629;SDS011;34426;52.180;4.462;2023-04-08T11:22:14;12.00;;;10.40;;
48629;SDS011;34426;52.180;4.462;2023-04-08T11:24:44;15.32;;;10.88;;
48629;SDS011;34426;52.180;4.462;2023-04-08T11:27:12;15.15;;;11.43;;
48629;SDS011;34426;52.180;4.462;2023-04-08T11:29:40;15.80;;;10.32;;
48629;SDS011;34426;52.180;4.462;2023-04-08T11:32:10;13.02;;;9.98;;
48629;SDS011;34426;52.180;4.462;2023-04-08T11:34:38;13.20;;;9.30;;
48629;SDS011;34426;52.180;4.462;2023-04-08T11:37:06;11.52;;;9.88;;
48629;SDS011;34426;52.180;4.462;2023-04-08T11:39:33;12.07;;;10.45;;
48629;SDS011;34426;52.180;4.462;2023-04-08T11:42:07;12.50;;;9.17;;
48629;SDS011;34426;52.180;4.462;2023-04-08T11:44:35;13.52;;;10.30;;
48629;SDS011;34426;52.180;4.462;2023-04-08T11:47:02;15.10;;;10.10;;
48629;SDS011;34426;52.180;4.462;2023-04-08T11:49:42;12.80;;;10.75;;
48629;SDS011;34426;52.180;4.462;2023-04-08T11:52:10;15.10;;;10.13;;
48629;SDS011;34426;52.180;4.462;2023-04-08T11:54:39;15.50;;;10.38;;
48629;SDS011;34426;52.180;4.462;2023-04-08T11:57:07;13.82;;;9.93;;
48629;SDS011;34426;52.180;4.462;2023-04-08T11:59:33;13.80;;;9.15;;
48629;SDS011;34426;52.180;4.462;2023-04-08T12:01:58;14.73;;;11.00;;
48629;SDS011;34426;52.180;4.462;2023-04-08T12:04:24;10.98;;;9.52;;
48629;SDS011;34426;52.180;4.462;2023-04-08T12:06:49;10.70;;;9.45;;
48629;SDS011;34426;52.180;4.462;2023-04-08T12:09:15;12.82;;;10.32;;
48629;SDS011;34426;52.180;4.462;2023-04-08T12:11:40;13.20;;;10.52;;
48629;SDS011;34426;52.180;4.462;2023-04-08T12:14:10;16.30;;;10.93;;
48629;SDS011;34426;52.180;4.462;2023-04-08T12:16:35;15.07;;;10.57;;
48629;SDS011;34426;52.180;4.462;2023-04-08T12:19:01;13.98;;;10.60;;
48629;SDS011;34426;52.180;4.462;2023-04-08T12:21:26;14.45;;;11.30;;
48629;SDS011;34426;52.180;4.462;2023-04-08T12:23:52;15.65;;;10.63;;
48629;SDS011;34426;52.180;4.462;2023-04-08T12:26:19;13.63;;;11.55;;
48629;SDS011;34426;52.180;4.462;2023-04-08T12:28:46;12.80;;;10.82;;
48629;SDS011;34426;52.180;4.462;2023-04-08T12:31:16;13.27;;;10.48;;
48629;SDS011;34426;52.180;4.462;2023-04-08T12:33:43;18.33;;;11.02;;
48629;SDS011;34426;52.180;4.462;2023-04-08T12:36:11;14.40;;;10.93;;
48629;SDS011;34426;52.180;4.462;2023-04-08T12:38:38;15.73;;;11.20;;
48629;SDS011;34426;52.180;4.462;2023-04-08T12:44:08;36.90;;;14.20;;
48629;SDS011;34426;52.180;4.462;2023-04-08T12:46:38;27.48;;;13.95;;
48629;SDS011;34426;52.180;4.462;2023-04-08T12:49:05;14.60;;;10.65;;
48629;SDS011;34426;52.180;4.462;2023-04-08T12:51:32;14.20;;;11.13;;
48629;SDS011;34426;52.180;4.462;2023-04-08T12:54:00;39.75;;;14.20;;
48629;SDS011;34426;52.180;4.462;2023-04-08T12:56:27;66.65;;;18.15;;
48629;SDS011;34426;52.180;4.462;2023-04-08T12:59:00;21.95;;;12.73;;
48629;SDS011;34426;52.180;4.462;2023-04-08T13:01:28;17.65;;;10.82;;
48629;SDS011;34426;52.180;4.462;2023-04-08T13:04:00;48.25;;;18.27;;
48629;SDS011;34426;52.180;4.462;2023-04-08T13:06:28;12.55;;;10.15;;
48629;SDS011;34426;52.180;4.462;2023-04-08T13:08:55;15.90;;;9.98;;
48629;SDS011;34426;52.180;4.462;2023-04-08T13:11:22;14.05;;;10.05;;
48629;SDS011;34426;52.180;4.462;2023-04-08T13:13:50;11.18;;;9.15;;
48629;SDS011;34426;52.180;4.462;2023-04-08T13:16:17;14.48;;;9.85;;
48629;SDS011;34426;52.180;4.462;2023-04-08T13:18:45;14.18;;;9.73;;
48629;SDS011;34426;52.180;4.462;2023-04-08T13:21:14;12.27;;;9.38;;
48629;SDS011;34426;52.180;4.462;2023-04-08T13:23:41;26.20;;;14.45;;
48629;SDS011;34426;52.180;4.462;2023-04-08T13:26:09;16.75;;;10.65;;
48629;SDS011;34426;52.180;4.462;2023-04-08T13:28:36;15.25;;;10.55;;
48629;SDS011;34426;52.180;4.462;2023-04-08T13:31:04;13.55;;;10.10;;
48629;SDS011;34426;52.180;4.462;2023-04-08T13:33:32;10.40;;;9.30;;
48629;SDS011;34426;52.180;4.462;2023-04-08T13:36:02;22.83;;;10.23;;
48629;SDS011;34426;52.180;4.462;2023-04-08T13:38:32;14.00;;;9.63;;
48629;SDS011;34426;52.180;4.462;2023-04-08T13:41:00;13.80;;;9.18;;
48629;SDS011;34426;52.180;4.462;2023-04-08T13:43:27;11.63;;;9.30;;
48629;SDS011;34426;52.180;4.462;2023-04-08T13:45:55;14.35;;;9.25;;
48629;SDS011;34426;52.180;4.462;2023-04-08T13:48:25;15.85;;;10.18;;
48629;SDS011;34426;52.180;4.462;2023-04-08T13:50:53;16.58;;;9.80;;
48629;SDS011;34426;52.180;4.462;2023-04-08T13:53:20;21.55;;;10.32;;
48629;SDS011;34426;52.180;4.462;2023-04-08T13:55:50;9.90;;;8.90;;
48629;SDS011;34426;52.180;4.462;2023-04-08T13:58:17;10.48;;;8.68;;
48629;SDS011;34426;52.180;4.462;2023-04-08T14:00:44;15.48;;;9.18;;
48629;SDS011;34426;52.180;4.462;2023-04-08T14:03:10;17.08;;;9.13;;
48629;SDS011;34426;52.180;4.462;2023-04-08T14:05:38;10.50;;;9.43;;
48629;SDS011;34426;52.180;4.462;2023-04-08T14:08:05;11.45;;;9.05;;
48629;SDS011;34426;52.180;4.462;2023-04-08T14:10:33;12.23;;;9.93;;
48629;SDS011;34426;52.180;4.462;2023-04-08T14:13:03;12.98;;;9.25;;
48629;SDS011;34426;52.180;4.462;2023-04-08T14:15:30;9.88;;;8.50;;
48629;SDS011;34426;52.180;4.462;2023-04-08T14:17:58;13.88;;;9.35;;
48629;SDS011;34426;52.180;4.462;2023-04-08T14:20:26;13.82;;;9.70;;
48629;SDS011;34426;52.180;4.462;2023-04-08T14:22:56;15.10;;;9.90;;
48629;SDS011;34426;52.180;4.462;2023-04-08T14:25:24;14.27;;;10.10;;
48629;SDS011;34426;52.180;4.462;2023-04-08T14:27:53;10.88;;;8.82;;
48629;SDS011;34426;52.180;4.462;2023-04-08T14:30:22;10.02;;;8.77;;
48629;SDS011;34426;52.180;4.462;2023-04-08T14:32:49;12.07;;;8.70;;
48629;SDS011;34426;52.180;4.462;2023-04-08T14:35:17;10.45;;;8.35;;